Accueil
METAR-TAF:

METAR-TAF

Aéroports :

Aéroport d'Aurigny

Aurigny,

latitude: 49-43N, longitude: 002-12W, altitude: 71 m

Observation

Le bulletin a été fait il y a 16 minutes, à 18:20 UTC
Vent 10 kt de est/nord-est
Température 7°C
Humidité 87%
Pression 1038 hPa
Visibilité 10 km ou plus
pas de nuages en-dessous de 1500 mètres et pas de cumulonimbus.

METAR: EGJA 271820Z 06010KT CAVOK 07/05 Q1038

Heure: 18:36 (18:36 UTC)

Prévision

Le bulletin a été fait il y a 4 heures et 32 minutes, à 14:04 UTC
Prévision valable du 27 à 15 UTC au 28 à 00 UTC
Vent 11 kt de est/nord-est
Visibilité 10 km ou plus
Quelques nuages à une hauteur de 1500 ft

TAF: EGJA 271404Z 2715/2800 06011KT 9999 FEW015

Observations et prévisions météorologiques de plus de 4000 aéroports (messages METAR et TAF).

Les stations disponibles sont représentées par des disques jaunes et rouges sur la carte.

Passer la souris dessus pour voir le nom de la station.

Cliquer dessus pour voir les observations et prévisions météorologiques.

Pour changer de carte: cliquez sur les boutons verts avec une croix noire pour zoomer, sur le bouton vert avec un tiret pour effectuer un zoom arrière, ou sur les flèches vertes pour les cartes adjacentes.


METAR-TAF: